sensor_id;sensor_type;location;lat;lon;timestamp;pressure;altitude;pressure_sealevel;temperature;humidity
31096;BME280;17749;51.962;8.560;2023-04-07T05:01:33;99957.13;;;6.62;100.00
31096;BME280;17749;51.962;8.560;2023-04-07T05:04:07;99951.75;;;6.65;100.00
31096;BME280;17749;51.962;8.560;2023-04-07T05:06:41;99955.25;;;6.67;100.00
31096;BME280;17749;51.962;8.560;2023-04-07T05:09:10;99950.81;;;6.67;100.00
31096;BME280;17749;51.962;8.560;2023-04-07T05:11:46;99963.09;;;6.70;100.00
31096;BME280;17749;51.962;8.560;2023-04-07T05:14:14;99960.44;;;6.70;100.00
31096;BME280;17749;51.962;8.560;2023-04-07T05:16:58;99956.91;;;6.71;100.00
31096;BME280;17749;51.962;8.560;2023-04-07T05:19:29;99953.50;;;6.66;100.00
31096;BME280;17749;51.962;8.560;2023-04-07T05:22:03;99954.31;;;6.68;100.00
31096;BME280;17749;51.962;8.560;2023-04-07T05:24:46;99955.16;;;6.70;100.00
31096;BME280;17749;51.962;8.560;2023-04-07T05:27:28;99953.44;;;6.69;100.00
31096;BME280;17749;51.962;8.560;2023-04-07T05:30:00;99958.72;;;6.69;100.00
31096;BME280;17749;51.962;8.560;2023-04-07T05:32:42;99966.50;;;6.75;100.00
31096;BME280;17749;51.962;8.560;2023-04-07T05:35:45;99963.06;;;6.71;100.00
31096;BME280;17749;51.962;8.560;2023-04-07T05:38:14;99971.91;;;6.70;100.00
31096;BME280;17749;51.962;8.560;2023-04-07T05:41:08;99970.16;;;6.69;100.00
31096;BME280;17749;51.962;8.560;2023-04-07T05:43:50;99964.88;;;6.69;100.00
31096;BME280;17749;51.962;8.560;2023-04-07T05:46:33;99958.81;;;6.66;100.00
31096;BME280;17749;51.962;8.560;2023-04-07T05:49:17;99964.97;;;6.66;100.00
31096;BME280;17749;51.962;8.560;2023-04-07T05:51:53;99968.34;;;6.71;100.00
31096;BME280;17749;51.962;8.560;2023-04-07T05:54:46;99978.97;;;6.70;100.00
31096;BME280;17749;51.962;8.560;2023-04-07T05:57:15;99979.72;;;6.75;100.00
31096;BME280;17749;51.962;8.560;2023-04-07T05:59:44;99978.81;;;6.76;100.00
31096;BME280;17749;51.962;8.560;2023-04-07T06:02:12;99986.81;;;6.73;100.00
31096;BME280;17749;51.962;8.560;2023-04-07T06:04:39;99982.38;;;6.75;100.00
31096;BME280;17749;51.962;8.560;2023-04-07T06:07:09;99992.88;;;6.78;100.00
31096;BME280;17749;51.962;8.560;2023-04-07T06:09:38;99991.97;;;6.79;100.00
31096;BME280;17749;51.962;8.560;2023-04-07T06:12:06;99998.03;;;6.83;100.00
31096;BME280;17749;51.962;8.560;2023-04-07T06:14:33;99997.09;;;6.85;100.00
31096;BME280;17749;51.962;8.560;2023-04-07T06:16:59;100003.31;;;6.84;100.00
31096;BME280;17749;51.962;8.560;2023-04-07T06:19:27;100005.88;;;6.87;100.00
31096;BME280;17749;51.962;8.560;2023-04-07T06:21:54;99999.72;;;6.87;100.00
31096;BME280;17749;51.962;8.560;2023-04-07T06:24:20;100002.38;;;6.87;100.00
31096;BME280;17749;51.962;8.560;2023-04-07T06:26:51;99998.78;;;6.89;100.00
31096;BME280;17749;51.962;8.560;2023-04-07T06:29:19;99999.56;;;6.91;100.00
31096;BME280;17749;51.962;8.560;2023-04-07T06:31:46;100004.75;;;6.96;100.00
31096;BME280;17749;51.962;8.560;2023-04-07T06:34:13;100009.09;;;6.98;100.00
31096;BME280;17749;51.962;8.560;2023-04-07T06:36:40;100001.97;;;7.00;100.00
31096;BME280;17749;51.962;8.560;2023-04-07T06:39:07;100009.00;;;7.01;100.00
31096;BME280;17749;51.962;8.560;2023-04-07T06:41:34;100010.66;;;7.06;100.00
31096;BME280;17749;51.962;8.560;2023-04-07T06:44:02;100010.66;;;7.06;100.00
31096;BME280;17749;51.962;8.560;2023-04-07T06:46:29;100013.19;;;7.10;100.00
31096;BME280;17749;51.962;8.560;2023-04-07T06:48:57;100007.63;;;7.19;100.00
31096;BME280;17749;51.962;8.560;2023-04-07T06:51:24;100014.44;;;7.28;100.00
31096;BME280;17749;51.962;8.560;2023-04-07T06:53:52;100020.44;;;7.36;100.00
31096;BME280;17749;51.962;8.560;2023-04-07T06:56:19;100023.72;;;7.44;100.00
31096;BME280;17749;51.962;8.560;2023-04-07T06:58:46;100027.13;;;7.50;100.00
31096;BME280;17749;51.962;8.560;2023-04-07T07:01:13;100031.50;;;7.49;100.00
31096;BME280;17749;51.962;8.560;2023-04-07T07:03:40;100026.09;;;7.54;100.00
31096;BME280;17749;51.962;8.560;2023-04-07T07:06:10;100026.91;;;7.56;100.00
31096;BME280;17749;51.962;8.560;2023-04-07T07:08:44;100021.44;;;7.62;100.00
31096;BME280;17749;51.962;8.560;2023-04-07T07:11:12;100029.22;;;7.68;100.00
31096;BME280;17749;51.962;8.560;2023-04-07T07:13:39;100024.81;;;7.67;100.00
31096;BME280;17749;51.962;8.560;2023-04-07T07:16:07;100024.66;;;7.73;100.00
31096;BME280;17749;51.962;8.560;2023-04-07T07:18:47;100040.19;;;7.85;100.00
31096;BME280;17749;51.962;8.560;2023-04-07T07:21:29;100034.66;;;7.93;100.00
31096;BME280;17749;51.962;8.560;2023-04-07T07:24:13;100035.34;;;8.00;100.00
31096;BME280;17749;51.962;8.560;2023-04-07T07:26:56;100042.19;;;8.07;100.00
31096;BME280;17749;51.962;8.560;2023-04-07T07:29:40;100047.25;;;8.15;100.00
31096;BME280;17749;51.962;8.560;2023-04-07T07:32:22;100047.34;;;8.11;100.00
31096;BME280;17749;51.962;8.560;2023-04-07T07:35:03;100041.38;;;8.05;100.00
31096;BME280;17749;51.962;8.560;2023-04-07T07:37:32;100050.72;;;8.17;100.00
31096;BME280;17749;51.962;8.560;2023-04-07T07:40:00;100048.88;;;8.20;100.00
31096;BME280;17749;51.962;8.560;2023-04-07T07:42:46;100045.19;;;8.24;100.00
31096;BME280;17749;51.962;8.560;2023-04-07T07:45:14;100045.81;;;8.32;100.00
31096;BME280;17749;51.962;8.560;2023-04-07T07:47:41;100060.53;;;8.43;100.00
31096;BME280;17749;51.962;8.560;2023-04-07T07:50:20;100061.06;;;8.54;100.00
31096;BME280;17749;51.962;8.560;2023-04-07T07:52:48;100061.16;;;8.51;100.00
31096;BME280;17749;51.962;8.560;2023-04-07T07:55:18;100064.66;;;8.53;100.00
31096;BME280;17749;51.962;8.560;2023-04-07T07:57:47;100060.31;;;8.50;100.00
31096;BME280;17749;51.962;8.560;2023-04-07T08:00:19;100068.22;;;8.52;100.00
31096;BME280;17749;51.962;8.560;2023-04-07T08:02:46;100064.97;;;8.44;100.00
31096;BME280;17749;51.962;8.560;2023-04-07T08:05:14;100069.94;;;8.53;100.00
31096;BME280;17749;51.962;8.560;2023-04-07T08:07:41;100070.63;;;8.60;100.00
31096;BME280;17749;51.962;8.560;2023-04-07T08:10:10;100069.56;;;8.65;100.00
31096;BME280;17749;51.962;8.560;2023-04-07T08:13:00;100081.63;;;8.75;100.00
31096;BME280;17749;51.962;8.560;2023-04-07T08:15:30;100081.41;;;8.82;100.00
31096;BME280;17749;51.962;8.560;2023-04-07T08:17:58;100081.13;;;8.91;100.00
31096;BME280;17749;51.962;8.560;2023-04-07T08:20:26;100086.25;;;8.95;100.00
31096;BME280;17749;51.962;8.560;2023-04-07T08:22:53;100079.66;;;9.07;100.00
31096;BME280;17749;51.962;8.560;2023-04-07T08:25:20;100085.59;;;9.15;100.00
31096;BME280;17749;51.962;8.560;2023-04-07T08:27:48;100088.72;;;9.27;100.00
31096;BME280;17749;51.962;8.560;2023-04-07T08:30:15;100078.22;;;9.24;100.00
31096;BME280;17749;51.962;8.560;2023-04-07T08:32:43;100075.44;;;9.27;100.00
31096;BME280;17749;51.962;8.560;2023-04-07T08:35:25;100082.13;;;9.38;100.00
31096;BME280;17749;51.962;8.560;2023-04-07T08:37:52;100089.88;;;9.44;100.00
31096;BME280;17749;51.962;8.560;2023-04-07T08:40:19;100080.81;;;9.50;100.00
31096;BME280;17749;51.962;8.560;2023-04-07T08:42:47;100086.91;;;9.54;100.00
31096;BME280;17749;51.962;8.560;2023-04-07T08:45:20;100093.81;;;9.58;100.00
31096;BME280;17749;51.962;8.560;2023-04-07T08:47:49;100094.63;;;9.60;100.00
31096;BME280;17749;51.962;8.560;2023-04-07T08:50:20;100088.09;;;9.69;100.00
31096;BME280;17749;51.962;8.560;2023-04-07T08:52:55;100085.13;;;9.78;100.00
31096;BME280;17749;51.962;8.560;2023-04-07T08:55:23;100091.72;;;9.91;100.00
31096;BME280;17749;51.962;8.560;2023-04-07T08:57:52;100093.44;;;9.92;100.00
31096;BME280;17749;51.962;8.560;2023-04-07T09:00:22;100090.78;;;9.92;100.00
31096;BME280;17749;51.962;8.560;2023-04-07T09:02:50;100100.28;;;9.99;100.00
31096;BME280;17749;51.962;8.560;2023-04-07T09:05:17;100097.31;;;10.07;100.00
31096;BME280;17749;51.962;8.560;2023-04-07T09:07:45;100104.06;;;10.16;100.00
31096;BME280;17749;51.962;8.560;2023-04-07T09:10:15;100099.81;;;10.12;100.00
31096;BME280;17749;51.962;8.560;2023-04-07T09:12:44;100103.50;;;10.07;100.00
31096;BME280;17749;51.962;8.560;2023-04-07T09:15:11;100105.13;;;10.12;100.00
31096;BME280;17749;51.962;8.560;2023-04-07T09:17:39;100107.81;;;10.12;100.00
31096;BME280;17749;51.962;8.560;2023-04-07T09:20:07;100106.75;;;10.16;100.00
31096;BME280;17749;51.962;8.560;2023-04-07T09:22:45;100106.63;;;10.19;100.00
31096;BME280;17749;51.962;8.560;2023-04-07T09:25:20;100112.06;;;10.16;100.00
31096;BME280;17749;51.962;8.560;2023-04-07T09:28:02;100107.59;;;10.16;100.00
31096;BME280;17749;51.962;8.560;2023-04-07T09:30:33;100112.75;;;10.21;100.00
31096;BME280;17749;51.962;8.560;2023-04-07T09:33:03;100107.44;;;10.21;100.00
31096;BME280;17749;51.962;8.560;2023-04-07T09:35:31;100116.72;;;10.34;100.00
31096;BME280;17749;51.962;8.560;2023-04-07T09:38:09;100105.72;;;10.20;100.00
31096;BME280;17749;51.962;8.560;2023-04-07T09:40:46;100108.38;;;10.20;100.00
31096;BME280;17749;51.962;8.560;2023-04-07T09:43:21;100108.72;;;10.10;100.00
31096;BME280;17749;51.962;8.560;2023-04-07T09:45:51;100113.00;;;10.15;100.00
31096;BME280;17749;51.962;8.560;2023-04-07T09:48:20;100111.84;;;10.22;100.00
31096;BME280;17749;51.962;8.560;2023-04-07T09:50:48;100119.38;;;10.34;100.00
31096;BME280;17749;51.962;8.560;2023-04-07T09:53:15;100119.94;;;10.42;100.00
31096;BME280;17749;51.962;8.560;2023-04-07T09:55:42;100122.69;;;10.41;100.00
31096;BME280;17749;51.962;8.560;2023-04-07T09:58:12;100130.50;;;10.45;100.00
31096;BME280;17749;51.962;8.560;2023-04-07T10:00:41;100130.38;;;10.48;100.00
31096;BME280;17749;51.962;8.560;2023-04-07T10:03:08;100125.59;;;10.57;100.00
31096;BME280;17749;51.962;8.560;2023-04-07T10:05:35;100123.22;;;10.49;100.00
31096;BME280;17749;51.962;8.560;2023-04-07T10:08:05;100135.69;;;10.48;100.00
31096;BME280;17749;51.962;8.560;2023-04-07T10:10:33;100126.88;;;10.46;100.00
31096;BME280;17749;51.962;8.560;2023-04-07T10:13:03;100134.69;;;10.51;100.00
31096;BME280;17749;51.962;8.560;2023-04-07T10:15:31;100130.84;;;10.58;100.00
31096;BME280;17749;51.962;8.560;2023-04-07T10:17:58;100133.47;;;10.60;100.00
31096;BME280;17749;51.962;8.560;2023-04-07T10:20:27;100138.78;;;10.60;100.00
31096;BME280;17749;51.962;8.560;2023-04-07T10:23:00;100139.66;;;10.60;100.00
31096;BME280;17749;51.962;8.560;2023-04-07T10:25:29;100138.78;;;10.60;100.00
31096;BME280;17749;51.962;8.560;2023-04-07T10:28:03;100147.22;;;10.71;100.00
31096;BME280;17749;51.962;8.560;2023-04-07T10:30:32;100151.91;;;10.86;100.00
31096;BME280;17749;51.962;8.560;2023-04-07T10:33:00;100147.59;;;10.84;100.00
31096;BME280;17749;51.962;8.560;2023-04-07T10:36:03;100148.94;;;10.94;100.00
31096;BME280;17749;51.962;8.560;2023-04-07T10:41:37;100146.47;;;11.11;100.00
31096;BME280;17749;51.962;8.560;2023-04-07T10:44:05;100153.06;;;11.23;100.00
31096;BME280;17749;51.962;8.560;2023-04-07T10:49:12;100150.81;;;11.55;100.00
31096;BME280;17749;51.962;8.560;2023-04-07T10:51:39;100147.63;;;11.47;100.00
31096;BME280;17749;51.962;8.560;2023-04-07T10:54:22;100153.75;;;11.49;100.00
31096;BME280;17749;51.962;8.560;2023-04-07T10:59:33;100157.63;;;11.41;100.00
31096;BME280;17749;51.962;8.560;2023-04-07T11:04:53;100153.94;;;11.44;100.00
31096;BME280;17749;51.962;8.560;2023-04-07T11:07:48;100153.63;;;11.52;100.00
31096;BME280;17749;51.962;8.560;2023-04-07T11:10:16;100156.09;;;11.56;100.00
31096;BME280;17749;51.962;8.560;2023-04-07T11:13:04;100149.81;;;11.57;100.00
31096;BME280;17749;51.962;8.560;2023-04-07T11:15:35;100153.44;;;11.77;100.00
31096;BME280;17749;51.962;8.560;2023-04-07T11:20:40;100158.53;;;12.22;100.00
31096;BME280;17749;51.962;8.560;2023-04-07T11:23:10;100165.31;;;12.30;100.00
31096;BME280;17749;51.962;8.560;2023-04-07T11:25:37;100154.78;;;12.45;100.00
31096;BME280;17749;51.962;8.560;2023-04-07T11:28:05;100162.28;;;12.56;100.00
31096;BME280;17749;51.962;8.560;2023-04-07T11:30:31;100159.56;;;12.58;100.00
31096;BME280;17749;51.962;8.560;2023-04-07T11:32:58;100159.97;;;12.67;100.00
31096;BME280;17749;51.962;8.560;2023-04-07T11:35:26;100160.25;;;12.80;100.00
31096;BME280;17749;51.962;8.560;2023-04-07T11:37:59;100159.88;;;12.88;100.00
31096;BME280;17749;51.962;8.560;2023-04-07T11:40:35;100159.38;;;12.80;100.00
31096;BME280;17749;51.962;8.560;2023-04-07T11:43:15;100165.53;;;12.82;100.00
31096;BME280;17749;51.962;8.560;2023-04-07T11:45:43;100158.00;;;12.90;100.00
31096;BME280;17749;51.962;8.560;2023-04-07T11:48:29;100161.47;;;12.92;100.00
31096;BME280;17749;51.962;8.560;2023-04-07T11:50:57;100168.75;;;13.07;100.00
31096;BME280;17749;51.962;8.560;2023-04-07T11:56:09;100171.16;;;13.12;100.00
31096;BME280;17749;51.962;8.560;2023-04-07T11:58:38;100167.09;;;12.86;100.00
31096;BME280;17749;51.962;8.560;2023-04-07T12:01:12;100166.59;;;12.78;100.00
31096;BME280;17749;51.962;8.560;2023-04-07T12:04:00;100172.75;;;12.80;100.00
31096;BME280;17749;51.962;8.560;2023-04-07T12:06:30;100171.63;;;13.03;100.00
31096;BME280;17749;51.962;8.560;2023-04-07T12:09:01;100177.69;;;13.06;100.00
31096;BME280;17749;51.962;8.560;2023-04-07T12:11:28;100186.44;;;13.10;100.00
31096;BME280;17749;51.962;8.560;2023-04-07T12:13:55;100172.34;;;13.06;100.00
31096;BME280;17749;51.962;8.560;2023-04-07T12:16:22;100175.63;;;13.30;100.00
31096;BME280;17749;51.962;8.560;2023-04-07T12:18:50;100180.94;;;13.49;100.00
31096;BME280;17749;51.962;8.560;2023-04-07T12:21:20;100182.66;;;13.50;100.00
31096;BME280;17749;51.962;8.560;2023-04-07T12:23:47;100181.53;;;13.54;100.00
31096;BME280;17749;51.962;8.560;2023-04-07T12:26:14;100175.09;;;13.58;100.00
31096;BME280;17749;51.962;8.560;2023-04-07T12:28:41;100188.94;;;13.67;100.00
31096;BME280;17749;51.962;8.560;2023-04-07T12:31:08;100182.66;;;13.50;100.00
31096;BME280;17749;51.962;8.560;2023-04-07T12:33:35;100180.75;;;13.35;100.00
31096;BME280;17749;51.962;8.560;2023-04-07T12:36:03;100187.75;;;13.37;100.00
31096;BME280;17749;51.962;8.560;2023-04-07T12:38:30;100190.09;;;13.44;100.00
31096;BME280;17749;51.962;8.560;2023-04-07T12:40:57;100199.03;;;13.44;100.00
31096;BME280;17749;51.962;8.560;2023-04-07T12:43:29;100199.25;;;13.40;100.00
31096;BME280;17749;51.962;8.560;2023-04-07T12:45:57;100196.09;;;13.49;100.00
31096;BME280;17749;51.962;8.560;2023-04-07T12:48:24;100196.66;;;13.55;100.00
31096;BME280;17749;51.962;8.560;2023-04-07T12:50:53;100200.59;;;13.48;100.00
31096;BME280;17749;51.962;8.560;2023-04-07T12:53:20;100195.47;;;13.44;100.00
31096;BME280;17749;51.962;8.560;2023-04-07T12:55:48;100199.31;;;13.38;100.00
31096;BME280;17749;51.962;8.560;2023-04-07T12:58:16;100197.44;;;13.40;100.00
31096;BME280;17749;51.962;8.560;2023-04-07T13:00:43;100203.75;;;13.39;100.00
31096;BME280;17749;51.962;8.560;2023-04-07T13:03:10;100197.69;;;13.16;100.00
31096;BME280;17749;51.962;8.560;2023-04-07T13:05:37;100202.69;;;13.05;100.00
31096;BME280;17749;51.962;8.560;2023-04-07T13:08:05;100199.38;;;13.00;100.00
31096;BME280;17749;51.962;8.560;2023-04-07T13:10:33;100201.44;;;13.12;100.00
31096;BME280;17749;51.962;8.560;2023-04-07T13:13:00;100200.81;;;13.26;100.00
31096;BME280;17749;51.962;8.560;2023-04-07T13:15:27;100194.28;;;13.32;100.00
31096;BME280;17749;51.962;8.560;2023-04-07T13:17:54;100188.63;;;13.38;100.00
31096;BME280;17749;51.962;8.560;2023-04-07T13:20:21;100193.56;;;13.46;100.00
31096;BME280;17749;51.962;8.560;2023-04-07T13:22:48;100197.44;;;13.40;100.00
31096;BME280;17749;51.962;8.560;2023-04-07T13:25:33;100202.56;;;13.45;100.00
31096;BME280;17749;51.962;8.560;2023-04-07T13:28:00;100195.22;;;13.48;100.00
31096;BME280;17749;51.962;8.560;2023-04-07T13:30:27;100198.06;;;13.45;100.00
31096;BME280;17749;51.962;8.560;2023-04-07T13:32:54;100200.16;;;13.38;100.00
31096;BME280;17749;51.962;8.560;2023-04-07T13:35:21;100199.16;;;13.41;100.00
31096;BME280;17749;51.962;8.560;2023-04-07T13:37:49;100199.66;;;13.49;100.00
31096;BME280;17749;51.962;8.560;2023-04-07T13:40:16;100197.84;;;13.50;100.00
31096;BME280;17749;51.962;8.560;2023-04-07T13:42:43;100198.06;;;13.45;100.00
31096;BME280;17749;51.962;8.560;2023-04-07T13:45:10;100199.16;;;13.41;100.00
31096;BME280;17749;51.962;8.560;2023-04-07T13:47:37;100196.88;;;13.51;100.00
31096;BME280;17749;51.962;8.560;2023-04-07T13:50:04;100202.88;;;13.56;100.00
31096;BME280;17749;51.962;8.560;2023-04-07T13:52:31;100200.44;;;13.51;100.00
31096;BME280;17749;51.962;8.560;2023-04-07T13:55:01;100199.66;;;13.49;100.00
31096;BME280;17749;51.962;8.560;2023-04-07T13:57:30;100193.50;;;13.47;100.00
31096;BME280;17749;51.962;8.560;2023-04-07T13:59:57;100206.78;;;13.49;100.00
31096;BME280;17749;51.962;8.560;2023-04-07T14:02:26;100195.47;;;13.26;100.00
31096;BME280;17749;51.962;8.560;2023-04-07T14:04:55;100202.69;;;13.05;100.00
31096;BME280;17749;51.962;8.560;2023-04-07T14:07:22;100202.97;;;12.99;100.00
31096;BME280;17749;51.962;8.560;2023-04-07T14:09:49;100190.88;;;12.92;100.00
31096;BME280;17749;51.962;8.560;2023-04-07T14:12:16;100194.56;;;12.89;100.00
31096;BME280;17749;51.962;8.560;2023-04-07T14:14:43;100191.00;;;12.89;100.00
31096;BME280;17749;51.962;8.560;2023-04-07T14:17:10;100193.16;;;13.00;100.00
31096;BME280;17749;51.962;8.560;2023-04-07T14:19:37;100189.97;;;13.10;100.00
31096;BME280;17749;51.962;8.560;2023-04-07T14:22:04;100184.63;;;13.10;100.00
31096;BME280;17749;51.962;8.560;2023-04-07T14:24:31;100181.31;;;13.05;100.00
31096;BME280;17749;51.962;8.560;2023-04-07T14:26:58;100183.34;;;13.00;100.00
31096;BME280;17749;51.962;8.560;2023-04-07T14:29:27;100187.09;;;12.96;100.00
31096;BME280;17749;51.962;8.560;2023-04-07T14:31:54;100192.16;;;13.02;100.00
31096;BME280;17749;51.962;8.560;2023-04-07T14:34:21;100188.22;;;13.09;100.00
31096;BME280;17749;51.962;8.560;2023-04-07T14:36:55;100187.03;;;13.15;100.00
31096;BME280;17749;51.962;8.560;2023-04-07T14:39:24;100185.16;;;13.17;100.00
31096;BME280;17749;51.962;8.560;2023-04-07T14:41:52;100186.81;;;13.20;100.00
31096;BME280;17749;51.962;8.560;2023-04-07T14:44:19;100188.47;;;13.22;100.00
31096;BME280;17749;51.962;8.560;2023-04-07T14:46:47;100189.44;;;13.21;100.00
31096;BME280;17749;51.962;8.560;2023-04-07T14:49:14;100189.97;;;13.10;100.00
31096;BME280;17749;51.962;8.560;2023-04-07T14:51:41;100185.63;;;13.08;100.00
31096;BME280;17749;51.962;8.560;2023-04-07T14:54:08;100189.25;;;13.07;100.00
31096;BME280;17749;51.962;8.560;2023-04-07T14:56:35;100185.81;;;13.05;100.00
31096;BME280;17749;51.962;8.560;2023-04-07T14:59:02;100189.25;;;13.07;100.00
31096;BME280;17749;51.962;8.560;2023-04-07T15:01:28;100195.91;;;12.98;100.00
31096;BME280;17749;51.962;8.560;2023-04-07T15:03:56;100189.91;;;12.93;100.00
31096;BME280;17749;51.962;8.560;2023-04-07T15:06:26;100193.88;;;13.03;100.00
31096;BME280;17749;51.962;8.560;2023-04-07T15:08:53;100194.69;;;13.05;100.00
31096;BME280;17749;51.962;8.560;2023-04-07T15:11:20;100203.56;;;13.06;100.00
31096;BME280;17749;51.962;8.560;2023-04-07T15:13:47;100197.03;;;13.11;100.00
31096;BME280;17749;51.962;8.560;2023-04-07T15:16:14;100197.03;;;13.11;100.00
31096;BME280;17749;51.962;8.560;2023-04-07T15:18:43;100199.66;;;13.13;100.00
31096;BME280;17749;51.962;8.560;2023-04-07T15:21:12;100195.97;;;13.15;100.00
31096;BME280;17749;51.962;8.560;2023-04-07T15:23:39;100198.75;;;13.12;100.00
31096;BME280;17749;51.962;8.560;2023-04-07T15:26:08;100199.56;;;13.14;100.00
31096;BME280;17749;51.962;8.560;2023-04-07T15:28:36;100195.06;;;13.15;100.00
31096;BME280;17749;51.962;8.560;2023-04-07T15:31:04;100206.56;;;13.17;100.00
31096;BME280;17749;51.962;8.560;2023-04-07T15:33:39;100198.47;;;13.19;100.00
31096;BME280;17749;51.962;8.560;2023-04-07T15:36:07;100198.31;;;13.22;100.00
31096;BME280;17749;51.962;8.560;2023-04-07T15:38:35;100197.31;;;13.24;100.00
31096;BME280;17749;51.962;8.560;2023-04-07T15:41:02;100196.44;;;13.24;100.00
31096;BME280;17749;51.962;8.560;2023-04-07T15:43:29;100202.94;;;13.37;100.00
31096;BME280;17749;51.962;8.560;2023-04-07T15:45:56;100206.53;;;13.36;100.00
31096;BME280;17749;51.962;8.560;2023-04-07T15:48:23;100206.47;;;13.37;100.00
31096;BME280;17749;51.962;8.560;2023-04-07T15:50:52;100208.44;;;13.34;100.00
31096;BME280;17749;51.962;8.560;2023-04-07T15:53:19;100213.81;;;13.34;100.00
31096;BME280;17749;51.962;8.560;2023-04-07T15:55:46;100212.84;;;13.35;100.00
31096;BME280;17749;51.962;8.560;2023-04-07T15:58:13;100205.78;;;13.34;100.00
31096;BME280;17749;51.962;8.560;2023-04-07T16:00:40;100209.09;;;13.39;100.00
31096;BME280;17749;51.962;8.560;2023-04-07T16:03:07;100207.81;;;13.46;100.00
31096;BME280;17749;51.962;8.560;2023-04-07T16:05:36;100211.28;;;13.48;100.00
31096;BME280;17749;51.962;8.560;2023-04-07T16:08:03;100214.91;;;13.47;100.00
31096;BME280;17749;51.962;8.560;2023-04-07T16:10:30;100208.94;;;13.42;100.00
31096;BME280;17749;51.962;8.560;2023-04-07T16:12:57;100212.78;;;13.54;100.00
31096;BME280;17749;51.962;8.560;2023-04-07T16:15:24;100223.31;;;13.57;100.00
31096;BME280;17749;51.962;8.560;2023-04-07T16:18:08;100217.75;;;13.44;100.00
31096;BME280;17749;51.962;8.560;2023-04-07T16:20:35;100225.78;;;13.44;100.00
31096;BME280;17749;51.962;8.560;2023-04-07T16:23:02;100224.97;;;13.42;100.00
31096;BME280;17749;51.962;8.560;2023-04-07T16:25:29;100231.13;;;13.44;100.00
31096;BME280;17749;51.962;8.560;2023-04-07T16:27:56;100237.19;;;13.48;100.00
31096;BME280;17749;51.962;8.560;2023-04-07T16:30:23;100233.53;;;13.49;100.00
31096;BME280;17749;51.962;8.560;2023-04-07T16:32:51;100235.75;;;13.41;100.00
31096;BME280;17749;51.962;8.560;2023-04-07T16:35:18;100239.38;;;13.40;100.00
31096;BME280;17749;51.962;8.560;2023-04-07T16:37:45;100241.47;;;13.33;100.00
31096;BME280;17749;51.962;8.560;2023-04-07T16:40:12;100243.28;;;13.13;100.00
31096;BME280;17749;51.962;8.560;2023-04-07T16:42:39;100243.72;;;13.04;100.00
31096;BME280;17749;51.962;8.560;2023-04-07T16:45:06;100246.63;;;13.00;100.00
31096;BME280;17749;51.962;8.560;2023-04-07T16:47:34;100245.84;;;12.98;100.00
31096;BME280;17749;51.962;8.560;2023-04-07T16:50:01;100247.00;;;12.92;100.00
31096;BME280;17749;51.962;8.560;2023-04-07T16:52:30;100248.94;;;12.88;100.00
31096;BME280;17749;51.962;8.560;2023-04-07T16:54:58;100251.69;;;12.87;100.00
31096;BME280;17749;51.962;8.560;2023-04-07T16:57:25;100260.13;;;12.78;100.00
31096;BME280;17749;51.962;8.560;2023-04-07T16:59:52;100257.81;;;12.70;100.00
31096;BME280;17749;51.962;8.560;2023-04-07T17:02:19;100268.84;;;12.62;100.00
31096;BME280;17749;51.962;8.560;2023-04-07T17:04:46;100274.78;;;12.50;100.00
31096;BME280;17749;51.962;8.560;2023-04-07T17:07:13;100275.31;;;12.38;100.00
31096;BME280;17749;51.962;8.560;2023-04-07T17:09:40;100273.59;;;12.37;100.00
31096;BME280;17749;51.962;8.560;2023-04-07T17:12:07;100282.66;;;12.33;100.00
31096;BME280;17749;51.962;8.560;2023-04-07T17:14:34;100280.28;;;12.26;100.00
31096;BME280;17749;51.962;8.560;2023-04-07T17:17:01;100294.09;;;12.16;100.00
31096;BME280;17749;51.962;8.560;2023-04-07T17:19:28;100288.19;;;12.07;100.00
31096;BME280;17749;51.962;8.560;2023-04-07T17:21:55;100298.16;;;12.04;100.00
31096;BME280;17749;51.962;8.560;2023-04-07T17:24:22;100296.75;;;11.95;100.00
31096;BME280;17749;51.962;8.560;2023-04-07T17:26:49;100307.66;;;11.89;100.00
31096;BME280;17749;51.962;8.560;2023-04-07T17:29:16;100305.28;;;11.81;100.00
31096;BME280;17749;51.962;8.560;2023-04-07T17:31:43;100308.09;;;11.78;100.00
31096;BME280;17749;51.962;8.560;2023-04-07T17:34:10;100315.41;;;11.73;100.00
31096;BME280;17749;51.962;8.560;2023-04-07T17:36:37;100315.13;;;11.59;100.00
31096;BME280;17749;51.962;8.560;2023-04-07T17:39:04;100323.41;;;11.53;100.00
31096;BME280;17749;51.962;8.560;2023-04-07T17:41:32;100330.09;;;11.41;100.00
31096;BME280;17749;51.962;8.560;2023-04-07T17:44:00;100331.44;;;11.29;100.00
31096;BME280;17749;51.962;8.560;2023-04-07T17:46:28;100330.81;;;11.23;100.00
31096;BME280;17749;51.962;8.560;2023-04-07T17:48:55;100331.09;;;11.15;100.00
31096;BME280;17749;51.962;8.560;2023-04-07T17:51:25;100335.00;;;11.06;100.00
31096;BME280;17749;51.962;8.560;2023-04-07T17:53:53;100343.28;;;10.99;100.00
31096;BME280;17749;51.962;8.560;2023-04-07T17:56:20;100343.63;;;10.89;100.00
31096;BME280;17749;51.962;8.560;2023-04-07T17:58:47;100350.16;;;10.81;100.00
31096;BME280;17749;51.962;8.560;2023-04-07T18:01:14;100354.06;;;10.72;100.00
31096;BME280;17749;51.962;8.560;2023-04-07T18:03:43;100356.91;;;10.66;100.00
31096;BME280;17749;51.962;8.560;2023-04-07T18:06:14;100364.31;;;10.58;100.00
31096;BME280;17749;51.962;8.560;2023-04-07T18:08:44;100375.31;;;10.48;100.00
31096;BME280;17749;51.962;8.560;2023-04-07T18:11:12;100372.94;;;10.41;100.00
31096;BME280;17749;51.962;8.560;2023-04-07T18:13:39;100367.03;;;10.31;100.00